Time,TemperatureF,DewpointF,PressureIn,WindDirection,WindDirectionDegrees,WindSpeedMPH,WindSpeedGustMPH,Humidity,HourlyPrecipIn,Conditions,Clouds,dailyrainin,SoftwareType,DateUTC
2013-04-25 00:00:00,30.9,27.8,30.03,West,272,6.0,9.0,88,0.00,-SN,,0.00,WeatherDisplay:10.37,2013-04-25 05:00:00,
2013-04-25 00:10:00,30.8,27.9,30.04,West,273,8.0,9.0,89,0.00,-SN,,0.00,WeatherDisplay:10.37,2013-04-25 05:10:00,
2013-04-25 00:15:00,30.6,27.5,30.04,West,268,6.0,9.0,88,0.00,-SN,,0.00,WeatherDisplay:10.37,2013-04-25 05:15:00,
2013-04-25 00:20:00,30.4,27.5,30.04,West,264,6.0,7.0,89,0.00,-SN,,0.00,WeatherDisplay:10.37,2013-04-25 05:20:00,
2013-04-25 00:30:00,30.3,27.4,30.04,West,264,7.0,8.0,89,0.00,-SN,,0.00,WeatherDisplay:10.37,2013-04-25 05:30:00,
2013-04-25 01:10:00,30.3,27.7,30.05,West,270,7.0,10.0,90,0.00,-SN,,0.00,WeatherDisplay:10.37,2013-04-25 06:10:00,
2013-04-25 01:15:00,30.2,27.6,30.05,West,270,7.0,9.0,90,0.00,-SN,,0.00,WeatherDisplay:10.37,2013-04-25 06:15:00,
2013-04-25 01:20:00,30.0,27.1,30.06,West,270,7.0,9.0,89,0.00,-SN,,0.00,WeatherDisplay:10.37,2013-04-25 06:20:00,
2013-04-25 01:30:00,30.2,27.6,30.06,West,266,7.0,8.0,90,0.00,-SN,,0.00,WeatherDisplay:10.37,2013-04-25 06:30:00,
2013-04-25 01:40:00,30.1,27.3,30.06,West,269,6.0,8.0,89,0.00,-SN,,0.00,WeatherDisplay:10.37,2013-04-25 06:40:00,
2013-04-25 01:45:00,29.6,27.0,30.06,West,265,5.0,7.0,90,0.00,-SN,,0.00,WeatherDisplay:10.37,2013-04-25 06:45:00,
2013-04-25 01:50:00,29.5,26.9,30.06,West,263,5.0,7.0,90,0.00,-SN,,0.00,WeatherDisplay:10.37,2013-04-25 06:50:00,
2013-04-25 02:00:00,29.2,26.9,30.07,WSW,258,2.0,4.0,91,0.00,-SN,,0.00,WeatherDisplay:10.37,2013-04-25 07:00:00,
2013-04-25 02:10:00,29.1,26.8,30.07,West,266,3.0,5.0,91,0.00,-SN,,0.00,WeatherDisplay:10.37,2013-04-25 07:10:00,
2013-04-25 02:15:00,28.7,26.2,30.07,West,264,3.0,4.0,90,0.00,-SN,,0.00,WeatherDisplay:10.37,2013-04-25 07:15:00,
2013-04-25 02:20:00,28.3,25.7,30.07,West,264,5.0,6.0,90,0.00,-SN,,0.00,WeatherDisplay:10.37,2013-04-25 07:20:00,
2013-04-25 02:30:00,29.7,27.4,30.07,West,273,8.0,9.0,91,0.00,-SN,,0.00,WeatherDisplay:10.37,2013-04-25 07:30:00,
2013-04-25 02:40:00,30.2,27.6,30.07,West,278,7.0,10.0,90,0.00,-SN,,0.00,WeatherDisplay:10.37,2013-04-25 07:40:00,
2013-04-25 02:45:00,30.1,27.2,30.07,West,279,6.0,8.0,89,0.00,-SN,,0.00,WeatherDisplay:10.37,2013-04-25 07:45:00,
2013-04-25 02:50:00,29.8,27.0,30.07,West,280,6.0,8.0,89,0.00,-SN,,0.00,WeatherDisplay:10.37,2013-04-25 07:50:00,
2013-04-25 02:55:00,29.5,26.6,30.07,West,281,6.0,8.0,89,0.00,-SN,,0.00,WeatherDisplay:10.37,2013-04-25 07:55:00,
2013-04-25 03:00:00,29.2,26.6,30.08,West,281,6.0,7.0,90,0.00,-SN,,0.00,WeatherDisplay:10.37,2013-04-25 08:00:00,
2013-04-25 03:10:00,28.7,26.4,30.08,West,276,6.0,7.0,91,0.00,-SN,,0.00,WeatherDisplay:10.37,2013-04-25 08:10:00,
2013-04-25 03:15:00,28.5,26.2,30.08,West,277,6.0,7.0,91,0.00,-SN,,0.00,WeatherDisplay:10.37,2013-04-25 08:15:00,
2013-04-25 03:20:00,28.9,26.6,30.08,West,280,6.0,8.0,91,0.00,-SN,,0.00,WeatherDisplay:10.37,2013-04-25 08:20:00,
2013-04-25 03:30:00,29.5,27.2,30.08,West,271,6.0,7.0,91,0.00,-SN,,0.00,WeatherDisplay:10.37,2013-04-25 08:30:00,
2013-04-25 03:40:00,29.6,27.3,30.08,West,266,6.0,6.0,91,0.00,-SN,,0.00,WeatherDisplay:10.37,2013-04-25 08:40:00,
2013-04-25 03:45:00,29.5,27.1,30.09,West,265,6.0,6.0,91,0.00,-SN,,0.00,WeatherDisplay:10.37,2013-04-25 08:45:00,
2013-04-25 03:50:00,29.5,27.2,30.08,West,265,5.0,6.0,91,0.00,-SN,,0.00,WeatherDisplay:10.37,2013-04-25 08:50:00,
2013-04-25 04:00:00,29.0,26.5,30.09,West,264,3.0,8.0,90,0.00,-SN,,0.00,WeatherDisplay:10.37,2013-04-25 09:00:00,
2013-04-25 04:10:00,28.4,25.8,30.09,WSW,257,1.0,3.0,90,0.00,-SN,,0.00,WeatherDisplay:10.37,2013-04-25 09:10:00,
2013-04-25 04:15:00,28.3,25.7,30.09,West,259,2.0,4.0,90,0.00,-SN,,0.00,WeatherDisplay:10.37,2013-04-25 09:15:00,
2013-04-25 04:20:00,28.1,25.8,30.09,West,261,1.0,3.0,91,0.00,-SN,,0.00,WeatherDisplay:10.37,2013-04-25 09:20:00,
2013-04-25 04:30:00,28.5,26.5,30.10,West,264,5.0,5.0,92,0.00,-SN,,0.00,WeatherDisplay:10.37,2013-04-25 09:30:00,
2013-04-25 04:40:00,28.9,26.3,30.10,West,260,2.0,5.0,90,0.00,-SN,,0.00,WeatherDisplay:10.37,2013-04-25 09:40:00,
2013-04-25 04:45:00,28.6,26.1,30.10,West,261,2.0,4.0,90,0.00,-SN,,0.00,WeatherDisplay:10.37,2013-04-25 09:45:00,
2013-04-25 04:50:00,28.5,25.9,30.10,WSW,258,2.0,3.0,90,0.00,-SN,,0.00,WeatherDisplay:10.37,2013-04-25 09:50:00,
2013-04-25 04:55:00,28.2,25.6,30.10,WSW,257,2.0,3.0,90,0.00,-SN,,0.00,WeatherDisplay:10.37,2013-04-25 09:55:00,
2013-04-25 05:00:00,27.9,25.3,30.11,WSW,257,1.0,3.0,90,0.00,-SN,,0.00,WeatherDisplay:10.37,2013-04-25 10:00:00,
2013-04-25 05:10:00,27.7,25.4,30.11,West,259,2.0,3.0,91,0.00,-SN,,0.00,WeatherDisplay:10.37,2013-04-25 10:10:00,
2013-04-25 05:15:00,27.7,25.4,30.11,West,261,2.0,3.0,91,0.00,-SN,,0.00,WeatherDisplay:10.37,2013-04-25 10:15:00,
2013-04-25 05:20:00,27.8,25.5,30.11,West,261,1.0,4.0,91,0.00,-SN,,0.00,WeatherDisplay:10.37,2013-04-25 10:20:00,
2013-04-25 05:30:00,27.6,25.1,30.11,West,259,1.0,3.0,90,0.00,-SN,,0.00,WeatherDisplay:10.37,2013-04-25 10:30:00,
2013-04-25 05:40:00,27.5,25.0,30.12,WSW,256,2.0,3.0,90,0.00,-SN,,0.00,WeatherDisplay:10.37,2013-04-25 10:40:00,
2013-04-25 05:45:00,27.8,25.5,30.11,WSW,255,2.0,3.0,91,0.00,-SN,,0.00,WeatherDisplay:10.37,2013-04-25 10:45:00,
2013-04-25 05:50:00,28.1,25.8,30.12,WSW,256,2.0,3.0,91,0.00,-SN,,0.00,WeatherDisplay:10.37,2013-04-25 10:50:00,
2013-04-25 06:00:00,28.2,25.6,30.12,West,259,1.0,3.0,90,0.00,-SN,,0.00,WeatherDisplay:10.37,2013-04-25 11:00:00,
2013-04-25 06:05:00,28.1,25.3,30.13,WSW,255,1.0,4.0,89,0.00,-SN,,0.00,WeatherDisplay:10.37,2013-04-25 11:05:00,
2013-04-25 06:10:00,28.1,25.0,30.13,WSW,255,1.0,3.0,88,0.00,-SN,,0.00,WeatherDisplay:10.37,2013-04-25 11:10:00,
2013-04-25 06:15:00,28.0,24.9,30.13,WSW,254,2.0,3.0,88,0.00,-SN,,0.00,WeatherDisplay:10.37,2013-04-25 11:15:00,
2013-04-25 06:20:00,27.8,24.7,30.13,WSW,253,1.0,2.0,88,0.00,-SN,,0.00,WeatherDisplay:10.37,2013-04-25 11:20:00,
2013-04-25 06:30:00,27.7,24.6,30.14,WSW,253,1.0,2.0,88,0.00,-SN,,0.00,WeatherDisplay:10.37,2013-04-25 11:30:00,
2013-04-25 06:40:00,27.6,24.5,30.14,WSW,252,1.0,2.0,88,0.00,-SN,,0.00,WeatherDisplay:10.37,2013-04-25 11:40:00,
2013-04-25 06:45:00,27.5,24.4,30.15,WSW,255,2.0,3.0,88,0.00,-SN,,0.00,WeatherDisplay:10.37,2013-04-25 11:45:00,
2013-04-25 06:50:00,27.5,24.1,30.15,WSW,258,2.0,5.0,87,0.00,-SN,,0.00,WeatherDisplay:10.37,2013-04-25 11:50:00,
2013-04-25 07:00:00,27.6,24.5,30.15,West,276,6.0,6.0,88,0.00,-SN,,0.00,WeatherDisplay:10.37,2013-04-25 12:00:00,
2013-04-25 07:10:00,28.8,25.4,30.16,West,276,5.0,6.0,87,0.00,-SN,,0.00,WeatherDisplay:10.37,2013-04-25 12:10:00,
2013-04-25 07:15:00,28.8,25.1,30.16,West,271,2.0,4.0,86,0.00,-SN,,0.00,WeatherDisplay:10.37,2013-04-25 12:15:00,
2013-04-25 07:20:00,28.9,25.5,30.16,West,267,3.0,5.0,87,0.00,-SN,,0.00,WeatherDisplay:10.37,2013-04-25 12:20:00,
2013-04-25 07:25:00,29.3,25.6,30.16,West,265,5.0,5.0,86,0.00,-SN,,0.00,WeatherDisplay:10.37,2013-04-25 12:25:00,
2013-04-25 07:30:00,29.7,26.0,30.16,West,270,6.0,9.0,86,0.00,-SN,,0.00,WeatherDisplay:10.37,2013-04-25 12:30:00,
2013-04-25 07:40:00,30.1,26.1,30.16,West,268,5.0,6.0,85,0.00,-SN,,0.00,WeatherDisplay:10.37,2013-04-25 12:40:00,
2013-04-25 07:45:00,30.2,26.3,30.16,West,266,5.0,7.0,85,0.00,-SN,,0.00,WeatherDisplay:10.37,2013-04-25 12:45:00,
2013-04-25 07:50:00,30.4,26.4,30.17,West,270,3.0,6.0,85,0.00,-SN,,0.00,WeatherDisplay:10.37,2013-04-25 12:50:00,
2013-04-25 08:00:00,30.7,26.4,30.17,West,275,6.0,7.0,84,0.00,-SN,,0.00,WeatherDisplay:10.37,2013-04-25 13:00:00,
2013-04-25 08:10:00,31.2,26.9,30.17,West,273,5.0,8.0,84,0.00,-SN,,0.00,WeatherDisplay:10.37,2013-04-25 13:10:00,
2013-04-25 08:15:00,31.3,26.7,30.18,West,269,10.0,12.0,83,0.00,-SN,,0.00,WeatherDisplay:10.37,2013-04-25 13:15:00,
2013-04-25 08:20:00,31.5,26.6,30.18,West,272,8.0,12.0,82,0.00,-SN,,0.00,WeatherDisplay:10.37,2013-04-25 13:20:00,
2013-04-25 08:30:00,31.8,26.9,30.18,West,270,6.0,8.0,82,0.00,-SN,,0.00,WeatherDisplay:10.37,2013-04-25 13:30:00,
2013-04-25 08:40:00,32.0,27.2,30.19,West,276,6.0,10.0,82,0.00,-SN,,0.00,WeatherDisplay:10.37,2013-04-25 13:40:00,
2013-04-25 08:45:00,32.2,27.0,30.19,WNW,282,7.0,8.0,81,0.00,-SN,,0.00,WeatherDisplay:10.37,2013-04-25 13:45:00,
2013-04-25 08:50:00,32.3,27.1,30.19,WNW,284,7.0,9.0,81,0.00,-SN,,0.00,WeatherDisplay:10.37,2013-04-25 13:50:00,
2013-04-25 08:55:00,32.4,27.2,30.19,West,273,10.0,12.0,81,0.00,-SN,,0.00,WeatherDisplay:10.37,2013-04-25 13:55:00,
2013-04-25 09:00:00,32.6,27.1,30.19,WSW,255,6.0,8.0,80,0.00,-SN,,0.00,WeatherDisplay:10.37,2013-04-25 14:00:00,
2013-04-25 09:05:00,33.0,27.2,30.19,WSW,256,5.0,6.0,79,0.00,-SN,,0.00,WeatherDisplay:10.37,2013-04-25 14:05:00,
2013-04-25 09:10:00,33.2,27.4,30.19,West,262,7.0,12.0,79,0.00,-SN,,0.00,WeatherDisplay:10.37,2013-04-25 14:10:00,
2013-04-25 09:15:00,33.0,27.2,30.19,West,263,7.0,8.0,79,0.00,-SN,,0.00,WeatherDisplay:10.37,2013-04-25 14:15:00,
2013-04-25 09:20:00,33.0,27.5,30.19,WSW,258,5.0,9.0,80,0.00,-SN,,0.00,WeatherDisplay:10.37,2013-04-25 14:20:00,
2013-04-25 09:25:00,33.5,27.3,30.19,WSW,246,3.0,7.0,78,0.00,-SN,,0.00,WeatherDisplay:10.37,2013-04-25 14:25:00,
2013-04-25 09:30:00,33.6,27.5,30.19,WSW,249,6.0,9.0,78,0.00,-SN,,0.00,WeatherDisplay:10.37,2013-04-25 14:30:00,
2013-04-25 09:40:00,33.9,27.7,30.19,West,274,5.0,7.0,78,0.00,-SN,,0.00,WeatherDisplay:10.37,2013-04-25 14:40:00,
2013-04-25 09:50:00,34.4,28.3,30.20,West,273,6.0,9.0,78,0.00,-SN,,0.00,WeatherDisplay:10.37,2013-04-25 14:50:00,
2013-04-25 09:55:00,34.7,28.2,30.20,West,260,6.0,10.0,77,0.00,-SN,,0.00,WeatherDisplay:10.37,2013-04-25 14:55:00,
2013-04-25 10:00:00,34.6,28.2,30.21,WSW,256,6.0,9.0,77,0.00,-SN,,0.00,WeatherDisplay:10.37,2013-04-25 15:00:00,
2013-04-25 10:10:00,34.9,27.8,30.21,WSW,252,5.0,8.0,75,0.00,-SN,,0.00,WeatherDisplay:10.37,2013-04-25 15:10:00,
2013-04-25 10:15:00,34.8,27.7,30.21,WSW,254,5.0,9.0,75,0.00,-SN,,0.00,WeatherDisplay:10.37,2013-04-25 15:15:00,
2013-04-25 10:20:00,34.9,27.5,30.21,WSW,252,3.0,7.0,74,0.00,-SN,,0.00,WeatherDisplay:10.37,2013-04-25 15:20:00,
2013-04-25 10:30:00,35.6,27.8,30.21,West,259,7.0,12.0,73,0.00,-SN,,0.00,WeatherDisplay:10.37,2013-04-25 15:30:00,
2013-04-25 10:40:00,36.3,28.1,30.21,WSW,256,3.0,10.0,72,0.00,-SN,,0.00,WeatherDisplay:10.37,2013-04-25 15:40:00,
2013-04-25 10:45:00,36.4,28.2,30.21,WSW,258,5.0,7.0,72,0.00,-SN,,0.00,WeatherDisplay:10.37,2013-04-25 15:45:00,
2013-04-25 10:50:00,36.1,28.2,30.21,West,261,7.0,10.0,73,0.00,-SN,,0.00,WeatherDisplay:10.37,2013-04-25 15:50:00,
2013-04-25 11:00:00,36.3,27.4,30.21,West,265,6.0,9.0,70,0.00,-SN,,0.00,WeatherDisplay:10.37,2013-04-25 16:00:00,
2013-04-25 11:10:00,36.3,28.2,30.21,West,266,6.0,8.0,72,0.00,-SN,,0.00,WeatherDisplay:10.37,2013-04-25 16:10:00,
2013-04-25 11:15:00,36.0,27.5,30.21,West,269,9.0,12.0,71,0.00,-SN,,0.00,WeatherDisplay:10.37,2013-04-25 16:15:00,
2013-04-25 11:20:00,36.4,27.6,30.21,West,265,9.0,12.0,70,0.00,-SN,,0.00,WeatherDisplay:10.37,2013-04-25 16:20:00,
2013-04-25 11:25:00,36.5,28.0,30.21,WSW,256,7.0,12.0,71,0.00,-SN,,0.00,WeatherDisplay:10.37,2013-04-25 16:25:00,
2013-04-25 11:30:00,36.7,27.5,30.21,WSW,250,7.0,12.0,69,0.00,-SN,,0.00,WeatherDisplay:10.37,2013-04-25 16:30:00,
2013-04-25 11:40:00,36.9,28.0,30.21,WSW,257,8.0,10.0,70,0.00,-SN,,0.00,WeatherDisplay:10.37,2013-04-25 16:40:00,
2013-04-25 11:45:00,37.3,27.7,30.21,WSW,258,3.0,6.0,68,0.00,-SN,,0.00,WeatherDisplay:10.37,2013-04-25 16:45:00,
2013-04-25 11:50:00,37.1,28.2,30.21,West,261,6.0,9.0,70,0.00,-SN,,0.00,WeatherDisplay:10.37,2013-04-25 16:50:00,
2013-04-25 12:00:00,37.2,28.6,30.21,WSW,251,3.0,7.0,71,0.00,-SN,,0.00,WeatherDisplay:10.37,2013-04-25 17:00:00,
2013-04-25 12:05:00,36.4,27.6,30.21,West,262,9.0,12.0,70,0.00,-SN,,0.00,WeatherDisplay:10.37,2013-04-25 17:05:00,
2013-04-25 12:10:00,36.5,27.3,30.20,West,266,6.0,10.0,69,0.00,-SN,,0.00,WeatherDisplay:10.37,2013-04-25 17:10:00,
2013-04-25 12:15:00,37.4,27.8,30.20,West,264,5.0,6.0,68,0.00,-SN,,0.00,WeatherDisplay:10.37,2013-04-25 17:15:00,
2013-04-25 12:20:00,37.7,28.5,30.20,West,268,7.0,8.0,69,0.00,-SN,,0.00,WeatherDisplay:10.37,2013-04-25 17:20:00,
2013-04-25 12:25:00,37.9,27.9,30.20,West,267,5.0,7.0,67,0.00,-SN,,0.00,WeatherDisplay:10.37,2013-04-25 17:25:00,
2013-04-25 12:30:00,38.9,28.9,30.20,West,261,2.0,10.0,67,0.00,-SN,,0.00,WeatherDisplay:10.37,2013-04-25 17:30:00,
2013-04-25 12:40:00,40.1,28.9,30.20,WSW,256,3.0,8.0,64,0.00,-SN,,0.00,WeatherDisplay:10.37,2013-04-25 17:40:00,
2013-04-25 12:45:00,39.9,28.4,30.19,West,272,6.0,8.0,63,0.00,-SN,,0.00,WeatherDisplay:10.37,2013-04-25 17:45:00,
2013-04-25 12:50:00,40.0,28.4,30.19,West,269,3.0,7.0,63,0.00,-SN,,0.00,WeatherDisplay:10.37,2013-04-25 17:50:00,
2013-04-25 13:00:00,42.0,27.9,30.19,WSW,238,5.0,12.0,57,0.00,-SN,,0.00,WeatherDisplay:10.37,2013-04-25 18:00:00,
2013-04-25 13:10:00,41.6,28.3,30.18,WSW,249,5.0,7.0,59,0.00,-SN,,0.00,WeatherDisplay:10.37,2013-04-25 18:10:00,
2013-04-25 13:15:00,40.5,27.7,30.18,WSW,252,6.0,12.0,60,0.00,-SN,,0.00,WeatherDisplay:10.37,2013-04-25 18:15:00,
2013-04-25 13:20:00,40.4,27.2,30.18,WSW,256,7.0,10.0,59,0.00,-SN,,0.00,WeatherDisplay:10.37,2013-04-25 18:20:00,
2013-04-25 13:30:00,41.0,28.1,30.18,WSW,254,6.0,10.0,60,0.00,-SN,,0.00,WeatherDisplay:10.37,2013-04-25 18:30:00,
2013-04-25 13:40:00,39.9,27.5,30.18,West,265,6.0,7.0,61,0.00,-SN,,0.00,WeatherDisplay:10.37,2013-04-25 18:40:00,
2013-04-25 13:45:00,39.9,28.7,30.17,West,259,3.0,6.0,64,0.00,-SN,,0.00,WeatherDisplay:10.37,2013-04-25 18:45:00,
2013-04-25 13:50:00,40.8,27.6,30.17,WSW,248,3.0,8.0,59,0.00,-SN,,0.00,WeatherDisplay:10.37,2013-04-25 18:50:00,
2013-04-25 14:00:00,42.8,28.2,30.17,WSW,256,3.0,7.0,56,0.00,-SN,,0.00,WeatherDisplay:10.37,2013-04-25 19:00:00,
2013-04-25 14:10:00,43.2,28.1,30.17,West,271,3.0,10.0,55,0.00,-SN,,0.00,WeatherDisplay:10.37,2013-04-25 19:10:00,
2013-04-25 14:15:00,44.5,27.9,30.17,WSW,258,3.0,9.0,52,0.00,-SN,,0.00,WeatherDisplay:10.37,2013-04-25 19:15:00,
2013-04-25 14:20:00,44.6,27.5,30.17,WSW,244,3.0,10.0,51,0.00,-SN,,0.00,WeatherDisplay:10.37,2013-04-25 19:20:00,
2013-04-25 14:30:00,43.3,27.3,30.17,WSW,254,3.0,12.0,53,0.00,-SN,,0.00,WeatherDisplay:10.37,2013-04-25 19:30:00,
2013-04-25 14:40:00,43.3,26.8,30.16,WSW,248,5.0,10.0,52,0.00,-SN,,0.00,WeatherDisplay:10.37,2013-04-25 19:40:00,
2013-04-25 14:45:00,43.6,26.6,30.16,WSW,248,3.0,7.0,51,0.00,-SN,,0.00,WeatherDisplay:10.37,2013-04-25 19:45:00,
2013-04-25 14:50:00,43.8,26.3,30.16,WSW,252,5.0,7.0,50,0.00,-SN,,0.00,WeatherDisplay:10.37,2013-04-25 19:50:00,
2013-04-25 14:55:00,44.3,25.3,30.16,WSW,241,6.0,14.0,47,0.00,-SN,,0.00,WeatherDisplay:10.37,2013-04-25 19:55:00,
2013-04-25 15:00:00,45.1,26.1,30.16,SW,231,2.0,8.0,47,0.00,-SN,,0.00,WeatherDisplay:10.37,2013-04-25 20:00:00,
2013-04-25 15:10:00,46.8,27.1,30.16,SW,233,1.0,5.0,46,0.00,-SN,,0.00,WeatherDisplay:10.37,2013-04-25 20:10:00,
2013-04-25 15:15:00,46.6,26.4,30.16,WSW,253,3.0,7.0,45,0.00,-SN,,0.00,WeatherDisplay:10.37,2013-04-25 20:15:00,
2013-04-25 15:20:00,46.2,25.4,30.16,WSW,239,6.0,12.0,44,0.00,-SN,,0.00,WeatherDisplay:10.37,2013-04-25 20:20:00,
2013-04-25 15:25:00,46.1,24.8,30.16,SW,234,6.0,10.0,43,0.00,-SN,,0.00,WeatherDisplay:10.37,2013-04-25 20:25:00,
2013-04-25 15:30:00,46.2,25.5,30.15,SW,234,3.0,9.0,44,0.00,-SN,,0.00,WeatherDisplay:10.37,2013-04-25 20:30:00,
2013-04-25 15:40:00,46.6,26.9,30.16,WSW,251,1.0,8.0,46,0.00,-SN,,0.00,WeatherDisplay:10.37,2013-04-25 20:40:00,
2013-04-25 15:45:00,46.7,25.9,30.16,WSW,242,2.0,9.0,44,0.00,-SN,,0.00,WeatherDisplay:10.37,2013-04-25 20:45:00,
2013-04-25 15:50:00,47.4,26.6,30.15,SW,224,3.0,9.0,44,0.00,-SN,,0.00,WeatherDisplay:10.37,2013-04-25 20:50:00,
2013-04-25 16:00:00,47.3,27.0,30.15,SW,232,2.0,5.0,45,0.00,-SN,,0.00,WeatherDisplay:10.37,2013-04-25 21:00:00,
2013-04-25 16:10:00,46.9,26.1,30.15,WSW,243,1.0,7.0,44,0.00,-SN,,0.00,WeatherDisplay:10.37,2013-04-25 21:10:00,
2013-04-25 16:15:00,47.3,26.5,30.15,SW,219,3.0,8.0,44,0.00,-SN,,0.00,WeatherDisplay:10.37,2013-04-25 21:15:00,
2013-04-25 16:20:00,46.9,25.5,30.15,SW,230,3.0,9.0,43,0.00,-SN,,0.00,WeatherDisplay:10.37,2013-04-25 21:20:00,
2013-04-25 16:25:00,46.9,25.0,30.15,WSW,239,3.0,8.0,42,0.00,-SN,,0.00,WeatherDisplay:10.37,2013-04-25 21:25:00,
2013-04-25 16:30:00,46.5,24.7,30.15,WSW,238,3.0,12.0,42,0.00,-SN,,0.00,WeatherDisplay:10.37,2013-04-25 21:30:00,
2013-04-25 16:40:00,46.4,25.6,30.15,SW,233,2.0,8.0,44,0.00,-SN,,0.00,WeatherDisplay:10.37,2013-04-25 21:40:00,
2013-04-25 16:45:00,46.4,24.5,30.15,WSW,238,5.0,13.0,42,0.00,-SN,,0.00,WeatherDisplay:10.37,2013-04-25 21:45:00,
2013-04-25 16:50:00,46.1,24.9,30.15,WSW,238,3.0,8.0,43,0.00,-SN,,0.00,WeatherDisplay:10.37,2013-04-25 21:50:00,
2013-04-25 17:00:00,45.8,24.0,30.16,WSW,247,3.0,12.0,42,0.00,-SN,,0.00,WeatherDisplay:10.37,2013-04-25 22:00:00,
2013-04-25 17:10:00,46.7,25.9,30.15,WSW,244,2.0,5.0,44,0.00,-SN,,0.00,WeatherDisplay:10.37,2013-04-25 22:10:00,
2013-04-25 17:15:00,46.8,26.0,30.15,WSW,246,2.0,7.0,44,0.00,-SN,,0.00,WeatherDisplay:10.37,2013-04-25 22:15:00,
2013-04-25 17:20:00,46.8,24.9,30.15,SSW,212,2.0,5.0,42,0.00,-SN,,0.00,WeatherDisplay:10.37,2013-04-25 22:20:00,
2013-04-25 17:25:00,46.7,24.2,30.15,WSW,237,2.0,8.0,41,0.00,-SN,,0.00,WeatherDisplay:10.37,2013-04-25 22:25:00,
2013-04-25 17:30:00,46.9,24.4,30.15,WSW,250,1.0,5.0,41,0.00,-SN,,0.00,WeatherDisplay:10.37,2013-04-25 22:30:00,
2013-04-25 17:40:00,47.2,25.2,30.15,SW,226,2.0,5.0,42,0.00,-SN,,0.00,WeatherDisplay:10.37,2013-04-25 22:40:00,
2013-04-25 17:45:00,47.3,24.8,30.15,SW,217,6.0,13.0,41,0.00,-SN,,0.00,WeatherDisplay:10.37,2013-04-25 22:45:00,
2013-04-25 17:50:00,47.2,25.8,30.15,SSW,212,1.0,8.0,43,0.00,-SN,,0.00,WeatherDisplay:10.37,2013-04-25 22:50:00,
2013-04-25 17:55:00,47.2,24.7,30.15,SW,232,3.0,6.0,41,0.00,-SN,,0.00,WeatherDisplay:10.37,2013-04-25 22:55:00,
2013-04-25 18:00:00,47.2,25.8,30.14,WSW,244,1.0,4.0,43,0.00,-SN,,0.00,WeatherDisplay:10.37,2013-04-25 23:00:00,
2013-04-25 18:05:00,47.3,25.3,30.14,SW,220,2.0,4.0,42,0.00,-SN,,0.00,WeatherDisplay:10.37,2013-04-25 23:05:00,
2013-04-25 18:10:00,47.2,25.3,30.14,South,187,1.0,6.0,42,0.00,-SN,,0.00,WeatherDisplay:10.37,2013-04-25 23:10:00,
2013-04-25 18:15:00,47.0,25.1,30.14,South,189,2.0,5.0,42,0.00,-SN,,0.00,WeatherDisplay:10.37,2013-04-25 23:15:00,
2013-04-25 18:20:00,46.7,25.4,30.14,NE,36,1.0,5.0,43,0.00,-SN,,0.00,WeatherDisplay:10.37,2013-04-25 23:20:00,
2013-04-25 18:30:00,47.3,25.9,30.14,SW,229,1.0,2.0,43,0.00,-SN,,0.00,WeatherDisplay:10.37,2013-04-25 23:30:00,
2013-04-25 18:35:00,47.2,25.8,30.14,WSW,239,1.0,6.0,43,0.00,-SN,,0.00,WeatherDisplay:10.37,2013-04-25 23:35:00,
2013-04-25 18:45:00,47.5,26.1,30.13,West,265,0.0,2.0,43,0.00,-SN,,0.00,WeatherDisplay:10.37,2013-04-25 23:45:00,
2013-04-25 18:50:00,47.2,26.4,30.13,SW,236,2.0,4.0,44,0.00,-SN,,0.00,WeatherDisplay:10.37,2013-04-25 23:50:00,
2013-04-25 19:00:00,46.4,26.2,30.13,WSW,242,0.0,2.0,45,0.00,-SN,,0.00,WeatherDisplay:10.37,2013-04-26 00:00:00,
2013-04-25 19:10:00,45.4,26.3,30.13,WNW,291,1.0,3.0,47,0.00,-SN,,0.00,WeatherDisplay:10.37,2013-04-26 00:10:00,
2013-04-25 19:15:00,44.7,26.2,30.13,SW,223,1.0,5.0,48,0.00,-SN,,0.00,WeatherDisplay:10.37,2013-04-26 00:15:00,
2013-04-25 19:20:00,44.2,26.2,30.13,SW,222,0.0,3.0,49,0.00,-SN,,0.00,WeatherDisplay:10.37,2013-04-26 00:20:00,
2013-04-25 19:30:00,42.6,25.7,30.13,NW,304,0.0,2.0,51,0.00,-SN,,0.00,WeatherDisplay:10.37,2013-04-26 00:30:00,
2013-04-25 19:40:00,41.3,26.4,30.13,West,278,0.0,1.0,55,0.00,-SN,,0.00,WeatherDisplay:10.37,2013-04-26 00:40:00,
2013-04-25 19:45:00,40.8,25.9,30.13,West,268,0.0,1.0,55,0.00,-SN,,0.00,WeatherDisplay:10.37,2013-04-26 00:45:00,
2013-04-25 19:50:00,40.4,26.3,30.13,West,268,0.0,1.0,57,0.00,-SN,,0.00,WeatherDisplay:10.37,2013-04-26 00:50:00,
2013-04-25 20:00:00,39.6,26.0,30.13,West,268,0.0,1.0,58,0.00,-SN,,0.00,WeatherDisplay:10.37,2013-04-26 01:00:00,
2013-04-25 20:10:00,39.3,25.7,30.13,West,268,0.0,1.0,58,0.00,-SN,,0.00,WeatherDisplay:10.37,2013-04-26 01:10:00,
2013-04-25 20:15:00,39.1,26.0,30.13,West,268,0.0,2.0,59,0.00,-SN,,0.00,WeatherDisplay:10.37,2013-04-26 01:15:00,
2013-04-25 20:20:00,39.0,25.9,30.13,West,268,0.0,0.0,59,0.00,-SN,,0.00,WeatherDisplay:10.37,2013-04-26 01:20:00,
2013-04-25 20:25:00,38.9,26.2,30.13,West,268,0.0,0.0,60,0.00,-SN,,0.00,WeatherDisplay:10.37,2013-04-26 01:25:00,
2013-04-25 20:30:00,38.8,26.1,30.13,West,268,0.0,0.0,60,0.00,-SN,,0.00,WeatherDisplay:10.37,2013-04-26 01:30:00,
2013-04-25 20:40:00,38.7,26.0,30.13,West,268,0.0,0.0,60,0.00,-SN,,0.00,WeatherDisplay:10.37,2013-04-26 01:40:00,
2013-04-25 20:45:00,38.5,25.8,30.13,West,268,0.0,0.0,60,0.00,-SN,,0.00,WeatherDisplay:10.37,2013-04-26 01:45:00,
2013-04-25 20:50:00,38.6,25.9,30.13,West,268,0.0,0.0,60,0.00,-SN,,0.00,WeatherDisplay:10.37,2013-04-26 01:50:00,
2013-04-25 20:55:00,38.6,26.3,30.13,West,268,0.0,0.0,61,0.00,-SN,,0.00,WeatherDisplay:10.37,2013-04-26 01:55:00,
2013-04-25 21:00:00,38.4,26.1,30.13,West,268,0.0,0.0,61,0.00,-SN,,0.00,WeatherDisplay:10.37,2013-04-26 02:00:00,
2013-04-25 21:10:00,38.2,25.9,30.13,West,268,0.0,0.0,61,0.00,-SN,,0.00,WeatherDisplay:10.37,2013-04-26 02:10:00,
2013-04-25 21:15:00,38.3,26.4,30.13,West,268,0.0,0.0,62,0.00,-SN,,0.00,WeatherDisplay:10.37,2013-04-26 02:15:00,
2013-04-25 21:20:00,38.0,26.2,30.12,West,268,0.0,0.0,62,0.00,-SN,,0.00,WeatherDisplay:10.37,2013-04-26 02:20:00,
2013-04-25 21:25:00,37.7,26.6,30.12,West,268,0.0,0.0,64,0.00,-SN,,0.00,WeatherDisplay:10.37,2013-04-26 02:25:00,
2013-04-25 21:30:00,37.4,25.9,30.12,West,268,0.0,0.0,63,0.00,-SN,,0.00,WeatherDisplay:10.37,2013-04-26 02:30:00,
2013-04-25 21:40:00,37.5,26.4,30.13,WSW,256,0.0,0.0,64,0.00,-SN,,0.00,WeatherDisplay:10.37,2013-04-26 02:40:00,
2013-04-25 21:45:00,37.5,26.4,30.13,WSW,255,0.0,1.0,64,0.00,-SN,,0.00,WeatherDisplay:10.37,2013-04-26 02:45:00,
2013-04-25 21:50:00,37.5,26.8,30.13,WSW,255,0.0,0.0,65,0.00,-SN,,0.00,WeatherDisplay:10.37,2013-04-26 02:50:00,
2013-04-25 22:00:00,37.3,27.0,30.12,WSW,255,0.0,0.0,66,0.00,-SN,,0.00,WeatherDisplay:10.37,2013-04-26 03:00:00,
2013-04-25 22:10:00,37.6,26.9,30.12,West,278,0.0,1.0,65,0.00,-SN,,0.00,WeatherDisplay:10.37,2013-04-26 03:10:00,
2013-04-25 22:15:00,37.7,27.4,30.12,WNW,287,0.0,1.0,66,0.00,-SN,,0.00,WeatherDisplay:10.37,2013-04-26 03:15:00,
2013-04-25 22:20:00,37.8,27.4,30.12,West,279,0.0,1.0,66,0.00,-SN,,0.00,WeatherDisplay:10.37,2013-04-26 03:20:00,
2013-04-25 22:30:00,38.1,27.7,30.12,NNW,348,0.0,1.0,66,0.00,-SN,,0.00,WeatherDisplay:10.37,2013-04-26 03:30:00,
2013-04-25 22:40:00,38.7,28.7,30.11,WSW,258,0.0,2.0,67,0.00,-SN,,0.00,WeatherDisplay:10.37,2013-04-26 03:40:00,
2013-04-25 22:45:00,38.9,28.9,30.11,WNW,288,1.0,3.0,67,0.00,-SN,,0.00,WeatherDisplay:10.37,2013-04-26 03:45:00,
2013-04-25 22:50:00,39.3,28.5,30.11,West,281,0.0,2.0,65,0.00,-SN,,0.00,WeatherDisplay:10.37,2013-04-26 03:50:00,
2013-04-25 23:00:00,39.9,28.7,30.11,WSW,248,0.0,1.0,64,0.00,-SN,,0.00,WeatherDisplay:10.37,2013-04-26 04:00:00,
2013-04-25 23:05:00,39.9,28.7,30.12,WSW,250,0.0,2.0,64,0.00,-SN,,0.00,WeatherDisplay:10.37,2013-04-26 04:05:00,
2013-04-25 23:10:00,40.0,28.8,30.12,West,263,1.0,2.0,64,0.00,-SN,,0.00,WeatherDisplay:10.37,2013-04-26 04:10:00,
2013-04-25 23:15:00,40.1,29.2,30.12,WNW,290,1.0,2.0,65,0.00,-SN,,0.00,WeatherDisplay:10.37,2013-04-26 04:15:00,
2013-04-25 23:20:00,39.7,30.4,30.12,North,356,0.0,0.0,69,0.00,-SN,,0.00,WeatherDisplay:10.37,2013-04-26 04:20:00,
2013-04-25 23:25:00,39.3,31.0,30.11,WNW,286,0.0,1.0,72,0.00,-SN,,0.00,WeatherDisplay:10.37,2013-04-26 04:25:00,
2013-04-25 23:30:00,38.8,30.5,30.11,WSW,249,0.0,0.0,72,0.00,-SN,,0.00,WeatherDisplay:10.37,2013-04-26 04:30:00,
2013-04-25 23:35:00,38.7,30.4,30.11,WSW,254,0.0,0.0,72,0.00,-SN,,0.00,WeatherDisplay:10.37,2013-04-26 04:35:00,
2013-04-25 23:40:00,38.6,30.0,30.10,West,269,0.0,1.0,71,0.00,-SN,,0.00,WeatherDisplay:10.37,2013-04-26 04:40:00,
2013-04-25 23:45:00,38.8,30.2,30.10,North,353,0.0,4.0,71,0.00,-SN,,0.00,WeatherDisplay:10.37,2013-04-26 04:45:00,
2013-04-25 23:50:00,39.1,29.8,30.10,NW,323,0.0,2.0,69,0.00,-SN,,0.00,WeatherDisplay:10.37,2013-04-26 04:50:00,